createdAt,value
2023-04-26T00:01:35.433Z,0.75
2023-04-26T00:04:03.192Z,0.73
2023-04-26T00:06:30.477Z,0.65
2023-04-26T00:08:57.216Z,0.95
2023-04-26T00:11:23.826Z,0.77
2023-04-26T00:13:50.406Z,0.63
2023-04-26T00:16:18.271Z,0.70
2023-04-26T00:18:46.155Z,0.85
2023-04-26T00:21:13.034Z,0.60
2023-04-26T00:23:39.837Z,0.88
2023-04-26T00:26:06.468Z,0.40
2023-04-26T00:28:33.130Z,1.05
2023-04-26T00:30:59.805Z,0.43
2023-04-26T00:33:26.455Z,0.70
2023-04-26T00:35:53.082Z,0.63
2023-04-26T00:38:19.726Z,0.55
2023-04-26T00:40:46.367Z,0.75
2023-04-26T00:43:13.072Z,0.75
2023-04-26T00:45:40.005Z,0.75
2023-04-26T00:48:06.706Z,0.57
2023-04-26T00:50:33.946Z,1.15
2023-04-26T00:53:02.682Z,0.57
2023-04-26T00:55:29.563Z,0.70
2023-04-26T00:57:56.281Z,0.75
2023-04-26T01:00:22.950Z,0.65
2023-04-26T01:02:49.920Z,1.13
2023-04-26T01:05:17.446Z,0.63
2023-04-26T01:07:44.874Z,0.73
2023-04-26T01:10:11.914Z,0.70
2023-04-26T01:12:39.164Z,1.10
2023-04-26T01:15:06.580Z,0.68
2023-04-26T01:17:33.734Z,0.70
2023-04-26T01:20:00.664Z,0.70
2023-04-26T01:22:28.327Z,0.80
2023-04-26T01:24:56.327Z,0.82
2023-04-26T01:27:23.012Z,0.52
2023-04-26T01:29:49.773Z,0.70
2023-04-26T01:32:16.544Z,0.80
2023-04-26T01:34:43.191Z,0.70
2023-04-26T01:37:09.948Z,0.50
2023-04-26T01:39:36.523Z,0.80
2023-04-26T01:42:04.574Z,1.23
2023-04-26T01:44:31.386Z,0.85
2023-04-26T01:46:58.166Z,0.70
2023-04-26T01:49:24.765Z,0.93
2023-04-26T01:51:51.713Z,0.75
2023-04-26T01:54:18.253Z,0.65
2023-04-26T01:56:44.844Z,0.93
2023-04-26T01:59:11.890Z,0.70
2023-04-26T02:01:38.550Z,1.08
2023-04-26T02:04:06.241Z,1.05
2023-04-26T02:06:32.997Z,0.55
2023-04-26T02:08:59.523Z,1.33
2023-04-26T02:11:27.008Z,1.17
2023-04-26T02:13:54.258Z,0.95
2023-04-26T02:16:21.244Z,1.10
2023-04-26T02:18:49.839Z,0.98
2023-04-26T02:21:18.528Z,0.85
2023-04-26T02:23:45.644Z,0.88
2023-04-26T02:26:12.643Z,1.30
2023-04-26T02:28:39.261Z,1.00
2023-04-26T02:31:06.225Z,0.98
2023-04-26T02:33:33.024Z,1.02
2023-04-26T02:36:02.195Z,0.65
2023-04-26T02:38:28.789Z,0.90
2023-04-26T02:41:03.130Z,0.88
2023-04-26T02:43:30.168Z,1.00
2023-04-26T02:45:58.940Z,0.90
2023-04-26T02:48:26.047Z,1.17
2023-04-26T02:50:53.153Z,1.58
2023-04-26T02:53:19.723Z,1.00
2023-04-26T02:55:46.289Z,1.20
2023-04-26T02:58:13.150Z,0.80
2023-04-26T03:00:44.937Z,1.20
2023-04-26T03:03:11.661Z,1.58
2023-04-26T03:05:38.445Z,1.00
2023-04-26T03:08:05.998Z,1.13
2023-04-26T03:10:32.550Z,1.00
2023-04-26T03:12:59.083Z,1.38
2023-04-26T03:15:25.667Z,1.00
2023-04-26T03:17:52.374Z,0.95
2023-04-26T03:20:19.363Z,0.95
2023-04-26T03:22:46.178Z,0.90
2023-04-26T03:25:13.136Z,1.20
2023-04-26T03:27:39.718Z,1.20
2023-04-26T03:30:07.114Z,2.00
2023-04-26T03:32:33.720Z,1.48
2023-04-26T03:35:00.756Z,1.25
2023-04-26T03:37:27.326Z,1.65
2023-04-26T03:39:54.209Z,1.50
2023-04-26T03:42:20.999Z,1.55
2023-04-26T03:44:47.620Z,1.73
2023-04-26T03:47:15.779Z,1.55
2023-04-26T03:49:42.719Z,1.77
2023-04-26T03:52:09.379Z,1.30
2023-04-26T03:54:36.246Z,1.02
2023-04-26T03:57:03.139Z,1.77
2023-04-26T03:59:30.186Z,1.45
2023-04-26T04:01:56.752Z,1.20
2023-04-26T04:04:24.328Z,1.25
2023-04-26T04:06:51.560Z,1.60
2023-04-26T04:09:18.135Z,1.50
2023-04-26T04:11:47.396Z,1.33
2023-04-26T04:14:14.238Z,1.30
2023-04-26T04:16:40.780Z,1.30
2023-04-26T04:19:07.498Z,1.15
2023-04-26T04:21:34.260Z,1.50
2023-04-26T04:24:02.274Z,1.58
2023-04-26T04:26:28.868Z,1.40
2023-04-26T04:28:57.260Z,1.55
2023-04-26T04:31:24.744Z,1.70
2023-04-26T04:33:51.459Z,1.17
2023-04-26T04:36:18.051Z,1.77
2023-04-26T04:38:45.185Z,1.10
2023-04-26T04:41:12.181Z,1.92
2023-04-26T04:43:38.806Z,1.50
2023-04-26T04:46:07.042Z,1.33
2023-04-26T04:48:33.905Z,1.50
2023-04-26T04:51:01.880Z,1.88
2023-04-26T04:53:28.895Z,1.33
2023-04-26T04:55:57.888Z,1.42
2023-04-26T04:58:25.759Z,1.60
2023-04-26T05:00:55.237Z,1.90
2023-04-26T05:03:22.717Z,1.67
2023-04-26T05:05:49.535Z,1.88
2023-04-26T05:08:16.698Z,2.78
2023-04-26T05:10:43.269Z,1.35
2023-04-26T05:13:09.807Z,1.67
2023-04-26T05:15:36.649Z,1.60
2023-04-26T05:18:03.406Z,1.33
2023-04-26T05:20:32.239Z,1.27
2023-04-26T05:22:58.768Z,1.83
2023-04-26T05:25:25.435Z,1.73
2023-04-26T05:27:53.979Z,3.03
2023-04-26T05:30:20.978Z,1.92
2023-04-26T05:32:47.675Z,1.80
2023-04-26T05:35:15.682Z,2.10
2023-04-26T05:37:42.266Z,2.10
2023-04-26T05:40:11.668Z,1.52
2023-04-26T05:42:38.345Z,1.80
2023-04-26T05:45:05.735Z,1.85
2023-04-26T05:47:33.974Z,1.60
2023-04-26T05:50:00.592Z,2.03
2023-04-26T05:52:28.652Z,1.52
2023-04-26T05:54:55.178Z,2.35
2023-04-26T05:57:21.856Z,1.75
2023-04-26T05:59:50.014Z,1.98
2023-04-26T06:02:16.781Z,2.72
2023-04-26T06:04:46.352Z,2.20
2023-04-26T06:07:13.241Z,2.35
2023-04-26T06:09:39.785Z,1.80
2023-04-26T06:12:06.896Z,2.13
2023-04-26T06:14:33.513Z,2.63
2023-04-26T06:17:02.886Z,2.28
2023-04-26T06:19:30.769Z,2.20
2023-04-26T06:21:57.482Z,1.65
2023-04-26T06:24:27.034Z,2.67
2023-04-26T06:26:53.809Z,2.08
2023-04-26T06:29:21.356Z,2.17
2023-04-26T06:31:47.976Z,1.88
2023-04-26T06:34:14.615Z,2.55
2023-04-26T06:36:41.195Z,2.45
2023-04-26T06:39:08.008Z,2.70
2023-04-26T06:41:36.316Z,2.38
2023-04-26T06:44:02.954Z,2.55
2023-04-26T06:46:29.556Z,2.53
2023-04-26T06:48:58.214Z,2.95
2023-04-26T06:51:24.931Z,2.08
2023-04-26T06:53:52.600Z,2.10
2023-04-26T06:56:19.448Z,2.50
2023-04-26T06:59:05.017Z,2.25
2023-04-26T07:01:35.468Z,2.70
2023-04-26T07:04:05.595Z,2.50
2023-04-26T07:06:32.461Z,2.78
2023-04-26T07:09:01.802Z,2.50
2023-04-26T07:11:28.731Z,1.70
2023-04-26T07:13:55.781Z,2.08
2023-04-26T07:16:22.587Z,2.65
2023-04-26T07:18:49.911Z,2.42
2023-04-26T07:21:16.526Z,2.10
2023-04-26T07:23:44.361Z,1.92
2023-04-26T07:26:11.699Z,2.00
2023-04-26T07:28:38.331Z,1.70
2023-04-26T07:31:07.081Z,2.25
2023-04-26T07:33:35.926Z,2.30
2023-04-26T07:36:02.880Z,1.58
2023-04-26T07:38:29.514Z,1.40
2023-04-26T07:40:57.898Z,1.55
2023-04-26T07:43:25.011Z,1.65
2023-04-26T07:45:53.612Z,1.90
2023-04-26T07:48:20.234Z,1.65
2023-04-26T07:50:48.592Z,1.55
2023-04-26T07:53:15.132Z,1.52
2023-04-26T07:55:43.542Z,1.00
2023-04-26T07:58:14.437Z,1.15
2023-04-26T08:00:41.627Z,0.80
2023-04-26T08:03:09.446Z,1.00
2023-04-26T08:05:36.402Z,0.75
2023-04-26T08:08:04.794Z,0.68
2023-04-26T08:10:31.612Z,0.82
2023-04-26T08:12:58.217Z,0.73
2023-04-26T08:15:26.579Z,1.15
2023-04-26T08:17:53.459Z,1.05
2023-04-26T08:20:20.809Z,1.00
2023-04-26T08:22:47.539Z,1.05
2023-04-26T08:25:14.954Z,0.88
2023-04-26T08:27:43.152Z,0.98
2023-04-26T08:30:11.566Z,1.20
2023-04-26T08:32:38.385Z,1.20
2023-04-26T08:35:07.405Z,1.02
2023-04-26T08:37:34.850Z,1.00
2023-04-26T08:40:01.507Z,0.90
2023-04-26T08:42:28.820Z,0.65
2023-04-26T08:44:56.282Z,0.85
2023-04-26T08:47:47.048Z,0.95
2023-04-26T08:50:15.684Z,1.02
2023-04-26T08:52:47.201Z,1.00
2023-04-26T08:55:16.483Z,1.35
2023-04-26T08:57:48.041Z,0.88
2023-04-26T09:00:16.133Z,0.90
2023-04-26T09:02:52.133Z,0.80
2023-04-26T09:05:24.008Z,0.43
2023-04-26T09:07:51.188Z,0.73
2023-04-26T09:10:22.711Z,0.82
2023-04-26T09:12:53.495Z,1.00
2023-04-26T09:15:24.516Z,0.90
2023-04-26T09:17:52.025Z,1.23
2023-04-26T09:20:28.080Z,0.75
2023-04-26T09:23:06.487Z,1.10
2023-04-26T09:25:33.587Z,1.13
2023-04-26T09:28:01.119Z,0.85
2023-04-26T09:30:28.941Z,1.00
2023-04-26T09:33:06.416Z,0.60
2023-04-26T09:35:38.608Z,1.17
2023-04-26T09:38:12.184Z,1.40
2023-04-26T09:40:42.218Z,0.82
2023-04-26T09:43:11.928Z,0.98
2023-04-26T09:45:53.634Z,0.90
2023-04-26T09:48:36.240Z,0.88
2023-04-26T09:51:02.855Z,1.10
2023-04-26T09:53:46.310Z,0.70
2023-04-26T09:56:21.930Z,1.05
2023-04-26T09:58:58.683Z,0.90
2023-04-26T10:01:26.816Z,0.80
2023-04-26T10:03:54.729Z,1.00
2023-04-26T10:06:22.856Z,0.57
2023-04-26T10:08:49.458Z,0.65
2023-04-26T10:11:16.518Z,0.50
2023-04-26T10:13:44.662Z,0.80
2023-04-26T10:16:11.610Z,0.90
2023-04-26T10:18:38.351Z,0.90
2023-04-26T10:21:16.078Z,0.70
2023-04-26T10:23:46.777Z,0.68
2023-04-26T10:26:58.920Z,0.68
2023-04-26T10:29:46.119Z,0.70
2023-04-26T10:32:17.293Z,0.88
2023-04-26T10:34:44.420Z,0.73
2023-04-26T10:37:15.697Z,0.98
2023-04-26T10:39:43.873Z,0.70
2023-04-26T10:42:27.565Z,1.33
2023-04-26T10:45:20.584Z,0.90
2023-04-26T10:47:47.520Z,0.80
2023-04-26T10:50:14.175Z,0.90
2023-04-26T10:53:05.653Z,0.70
2023-04-26T10:55:38.947Z,0.90
2023-04-26T10:58:29.108Z,0.68
2023-04-26T11:01:11.444Z,0.60
2023-04-26T11:03:38.636Z,0.80
2023-04-26T11:06:09.981Z,0.60
2023-04-26T11:08:38.284Z,0.50
2023-04-26T11:11:04.872Z,0.65
2023-04-26T11:13:41.851Z,0.77
2023-04-26T11:16:13.613Z,0.40
2023-04-26T11:18:45.271Z,0.70
2023-04-26T11:21:15.202Z,0.98
2023-04-26T11:23:41.761Z,0.40
2023-04-26T11:26:09.390Z,0.40
2023-04-26T11:28:38.219Z,0.80
2023-04-26T11:31:06.396Z,0.75
2023-04-26T11:33:35.998Z,0.70
2023-04-26T11:36:03.370Z,1.00
2023-04-26T11:38:30.287Z,0.73
2023-04-26T11:40:58.738Z,0.60
2023-04-26T11:43:39.053Z,0.60
2023-04-26T11:46:07.420Z,0.50
2023-04-26T11:48:36.695Z,0.75
2023-04-26T11:51:06.783Z,0.77
2023-04-26T11:53:40.670Z,0.68
2023-04-26T11:56:18.068Z,0.43
2023-04-26T11:58:50.663Z,0.88
2023-04-26T12:01:36.575Z,0.50
2023-04-26T12:04:11.674Z,0.60
2023-04-26T12:06:45.908Z,0.75
2023-04-26T12:09:13.524Z,0.80
2023-04-26T12:11:40.497Z,0.75
2023-04-26T12:14:09.760Z,0.75
2023-04-26T12:16:37.334Z,0.50
2023-04-26T12:19:10.282Z,0.50
2023-04-26T12:21:44.080Z,0.75
2023-04-26T12:24:27.051Z,0.90
2023-04-26T12:26:53.646Z,0.80
2023-04-26T12:29:21.444Z,0.60
2023-04-26T12:31:52.338Z,1.00
2023-04-26T12:34:18.968Z,0.85
2023-04-26T12:36:45.722Z,0.80
2023-04-26T12:39:13.546Z,1.05
2023-04-26T12:41:44.350Z,0.52
2023-04-26T12:44:13.796Z,0.70
2023-04-26T12:46:43.167Z,1.15
2023-04-26T12:49:09.936Z,0.50
2023-04-26T12:51:37.643Z,0.50
2023-04-26T12:54:06.624Z,0.40
2023-04-26T12:56:34.966Z,0.82
2023-04-26T12:59:02.894Z,0.40
2023-04-26T13:01:30.638Z,0.43
2023-04-26T13:03:59.955Z,0.55
2023-04-26T13:06:28.660Z,0.43
2023-04-26T13:08:55.368Z,0.80
2023-04-26T13:11:22.090Z,0.50
2023-04-26T13:13:49.463Z,0.55
2023-04-26T13:16:16.765Z,0.55
2023-04-26T13:18:43.377Z,1.02
2023-04-26T13:21:09.968Z,0.80
2023-04-26T13:23:36.722Z,0.52
2023-04-26T13:26:03.325Z,0.90
2023-04-26T13:28:29.950Z,0.73
2023-04-26T13:30:56.592Z,0.85
2023-04-26T13:33:23.722Z,1.02
2023-04-26T13:35:50.499Z,0.50
2023-04-26T13:38:17.485Z,0.70
2023-04-26T13:40:44.807Z,0.60
2023-04-26T13:43:14.836Z,0.57
2023-04-26T13:45:45.609Z,0.80
2023-04-26T13:48:13.171Z,0.82
2023-04-26T13:50:40.184Z,0.50
2023-04-26T13:53:07.153Z,0.50
2023-04-26T13:55:33.814Z,0.40
2023-04-26T13:58:00.997Z,1.00
2023-04-26T14:00:27.709Z,0.57
2023-04-26T14:02:54.658Z,0.80
2023-04-26T14:05:23.743Z,0.50
2023-04-26T14:07:51.834Z,0.40
2023-04-26T14:10:23.502Z,0.70
2023-04-26T14:12:54.664Z,0.90
2023-04-26T14:15:21.320Z,0.80
2023-04-26T14:17:48.053Z,1.52
2023-04-26T14:20:15.226Z,0.90
2023-04-26T14:22:41.770Z,0.70
2023-04-26T14:25:08.833Z,0.57
2023-04-26T14:27:40.242Z,0.90
2023-04-26T14:30:07.658Z,0.70
2023-04-26T14:32:36.174Z,0.70
2023-04-26T14:35:02.782Z,0.60
2023-04-26T14:37:29.452Z,1.10
2023-04-26T14:39:56.089Z,1.05
2023-04-26T14:42:24.905Z,0.70
2023-04-26T14:44:51.549Z,1.10
2023-04-26T14:47:18.172Z,0.77
2023-04-26T14:49:44.760Z,0.82
2023-04-26T14:52:11.294Z,0.90
2023-04-26T14:54:42.414Z,0.90
2023-04-26T14:57:10.246Z,0.70
2023-04-26T14:59:37.203Z,0.85
2023-04-26T15:02:04.864Z,0.98
2023-04-26T15:04:31.765Z,0.77
2023-04-26T15:06:58.629Z,0.85
2023-04-26T15:09:25.227Z,1.13
2023-04-26T15:11:51.812Z,0.88
2023-04-26T15:14:18.346Z,1.10
2023-04-26T15:16:46.643Z,1.45
2023-04-26T15:19:13.260Z,1.50
2023-04-26T15:21:39.888Z,0.88
2023-04-26T15:24:07.619Z,0.95
2023-04-26T15:26:34.422Z,0.60
2023-04-26T15:29:01.633Z,1.30
2023-04-26T15:31:28.607Z,0.88
2023-04-26T15:33:57.892Z,1.17
2023-04-26T15:36:24.503Z,0.82
2023-04-26T15:38:51.117Z,1.10
2023-04-26T15:41:17.699Z,0.82
2023-04-26T15:43:44.349Z,0.90
2023-04-26T15:46:14.795Z,1.05
2023-04-26T15:48:41.369Z,1.05
2023-04-26T15:51:08.006Z,1.20
2023-04-26T15:53:37.593Z,1.60
2023-04-26T15:56:16.049Z,1.92
2023-04-26T15:58:45.052Z,1.10
2023-04-26T16:01:12.324Z,1.02
2023-04-26T16:03:41.866Z,1.25
2023-04-26T16:06:10.031Z,0.90
2023-04-26T16:08:40.753Z,1.00
2023-04-26T16:11:07.804Z,1.55
2023-04-26T16:13:35.324Z,1.30
2023-04-26T16:16:04.213Z,1.10
2023-04-26T16:18:31.166Z,1.50
2023-04-26T16:21:09.342Z,1.65
2023-04-26T16:23:36.647Z,1.17
2023-04-26T16:26:03.924Z,1.88
2023-04-26T16:28:30.581Z,1.42
2023-04-26T16:30:57.457Z,1.05
2023-04-26T16:33:26.875Z,1.05
2023-04-26T16:35:57.202Z,1.30
2023-04-26T16:38:24.074Z,1.05
2023-04-26T16:40:57.923Z,0.93
2023-04-26T16:43:26.906Z,1.52
2023-04-26T16:46:05.108Z,1.10
2023-04-26T16:48:32.758Z,1.45
2023-04-26T16:51:00.618Z,1.15
2023-04-26T16:53:27.380Z,1.10
2023-04-26T16:55:55.983Z,1.45
2023-04-26T16:58:23.060Z,1.13
2023-04-26T17:00:49.736Z,0.90
2023-04-26T17:03:17.170Z,0.90
2023-04-26T17:05:49.585Z,1.02
2023-04-26T17:08:17.499Z,0.88
2023-04-26T17:10:46.157Z,1.30
2023-04-26T17:13:13.248Z,0.75
2023-04-26T17:15:41.347Z,0.77
2023-04-26T17:18:09.520Z,0.70
2023-04-26T17:20:36.502Z,1.25
2023-04-26T17:23:04.241Z,1.20
2023-04-26T17:25:31.175Z,1.30
2023-04-26T17:27:58.418Z,1.23
2023-04-26T17:30:25.167Z,1.25
2023-04-26T17:32:52.056Z,1.23
2023-04-26T17:35:19.983Z,1.42
2023-04-26T17:37:49.690Z,1.13
2023-04-26T17:40:17.749Z,2.20
2023-04-26T17:42:44.679Z,1.15
2023-04-26T17:45:14.669Z,1.50
2023-04-26T17:47:42.742Z,1.13
2023-04-26T17:50:09.856Z,1.45
2023-04-26T17:52:37.418Z,1.20
2023-04-26T17:55:05.898Z,1.10
2023-04-26T17:57:32.580Z,1.05
2023-04-26T17:59:59.437Z,1.92
2023-04-26T18:02:26.347Z,1.17
2023-04-26T18:04:55.266Z,1.05
2023-04-26T18:07:22.158Z,1.20
2023-04-26T18:09:48.832Z,1.55
2023-04-26T18:12:18.539Z,1.25
2023-04-26T18:14:45.291Z,1.30
2023-04-26T18:17:13.016Z,1.13
2023-04-26T18:19:39.953Z,1.23
2023-04-26T18:22:07.635Z,1.33
2023-04-26T18:24:35.533Z,0.95
2023-04-26T18:27:02.729Z,1.65
2023-04-26T18:29:29.787Z,1.52
2023-04-26T18:31:56.667Z,2.28
2023-04-26T18:34:25.701Z,1.27
2023-04-26T18:36:52.326Z,1.58
2023-04-26T18:39:19.097Z,1.33
2023-04-26T18:41:45.848Z,1.95
2023-04-26T18:44:15.530Z,1.35
2023-04-26T18:46:44.603Z,1.10
2023-04-26T18:49:14.166Z,1.65
2023-04-26T18:51:40.850Z,1.25
2023-04-26T18:54:07.432Z,1.15
2023-04-26T18:56:34.022Z,1.50
2023-04-26T18:59:02.065Z,1.33
2023-04-26T19:01:28.756Z,1.88
2023-04-26T19:03:56.431Z,1.42
2023-04-26T19:06:23.170Z,1.58
2023-04-26T19:08:49.751Z,1.55
2023-04-26T19:11:16.560Z,1.40
2023-04-26T19:13:43.360Z,1.20
2023-04-26T19:16:12.411Z,1.77
2023-04-26T19:18:44.171Z,1.40
2023-04-26T19:21:11.113Z,1.40
2023-04-26T19:23:39.858Z,1.30
2023-04-26T19:26:12.212Z,1.75
2023-04-26T19:28:39.124Z,1.27
2023-04-26T19:31:06.686Z,1.20
2023-04-26T19:33:33.405Z,1.42
2023-04-26T19:35:59.989Z,1.35
2023-04-26T19:38:26.627Z,1.50
2023-04-26T19:40:53.314Z,1.17
2023-04-26T19:43:21.549Z,1.23
2023-04-26T19:45:50.118Z,1.67
2023-04-26T19:48:16.856Z,1.45
2023-04-26T19:50:45.666Z,1.13
2023-04-26T19:53:13.788Z,1.40
2023-04-26T19:55:41.283Z,1.63
2023-04-26T19:58:08.896Z,1.60
2023-04-26T20:00:35.970Z,1.30
2023-04-26T20:03:02.994Z,1.52
2023-04-26T20:05:29.969Z,1.85
2023-04-26T20:07:58.084Z,1.52
2023-04-26T20:10:25.008Z,1.73
2023-04-26T20:12:51.968Z,1.55
2023-04-26T20:15:21.140Z,1.65
2023-04-26T20:17:49.722Z,1.42
2023-04-26T20:20:16.496Z,1.10
2023-04-26T20:22:43.255Z,1.35
2023-04-26T20:25:10.297Z,1.10
2023-04-26T20:27:36.970Z,1.20
2023-04-26T20:30:05.687Z,2.35
2023-04-26T20:32:32.653Z,1.45
2023-04-26T20:34:59.450Z,0.80
2023-04-26T20:37:26.189Z,1.55
2023-04-26T20:39:52.951Z,1.98
2023-04-26T20:42:19.745Z,1.60
2023-04-26T20:44:46.371Z,1.52
2023-04-26T20:47:13.155Z,1.02
2023-04-26T20:49:39.836Z,0.82
2023-04-26T20:52:06.544Z,1.27
2023-04-26T20:54:34.226Z,0.98
2023-04-26T20:57:01.745Z,1.10
2023-04-26T20:59:28.407Z,1.20
2023-04-26T21:01:55.146Z,1.00
2023-04-26T21:04:22.124Z,0.80
2023-04-26T21:06:49.009Z,0.80
2023-04-26T21:09:16.135Z,1.00
2023-04-26T21:11:42.735Z,0.70
2023-04-26T21:14:09.443Z,1.52
2023-04-26T21:16:36.122Z,1.38
2023-04-26T21:19:03.397Z,1.40
2023-04-26T21:21:30.193Z,1.13
2023-04-26T21:23:56.734Z,1.20
2023-04-26T21:26:23.341Z,1.55
2023-04-26T21:28:49.938Z,1.42
2023-04-26T21:31:16.604Z,1.40
2023-04-26T21:33:43.269Z,1.13
2023-04-26T21:36:10.034Z,1.55
2023-04-26T21:38:36.593Z,1.50
2023-04-26T21:41:03.144Z,1.40
2023-04-26T21:43:29.738Z,1.67
2023-04-26T21:45:57.932Z,2.40
2023-04-26T21:48:26.027Z,1.38
2023-04-26T21:50:52.677Z,1.25
2023-04-26T21:53:19.271Z,1.83
2023-04-26T21:55:52.888Z,1.35
2023-04-26T21:58:20.166Z,1.33
2023-04-26T22:00:46.785Z,1.58
2023-04-26T22:03:13.874Z,1.50
2023-04-26T22:05:41.001Z,1.55
2023-04-26T22:08:07.680Z,0.98
2023-04-26T22:10:34.953Z,1.52
2023-04-26T22:13:01.686Z,1.10
2023-04-26T22:15:28.736Z,1.40
2023-04-26T22:17:55.511Z,1.38
2023-04-26T22:20:22.442Z,1.50
2023-04-26T22:22:49.088Z,2.08
2023-04-26T22:25:15.802Z,1.70
2023-04-26T22:27:42.445Z,1.65
2023-04-26T22:30:22.807Z,1.55
2023-04-26T22:32:53.912Z,1.63
2023-04-26T22:35:20.820Z,1.75
2023-04-26T22:37:47.951Z,1.90
2023-04-26T22:40:15.153Z,1.70
2023-04-26T22:42:42.420Z,1.75
2023-04-26T22:45:10.671Z,2.35
2023-04-26T22:47:37.405Z,1.50
2023-04-26T22:50:05.125Z,1.95
2023-04-26T22:52:32.419Z,1.85
2023-04-26T22:54:59.964Z,1.83
2023-04-26T22:57:26.963Z,2.17
2023-04-26T22:59:53.605Z,1.30
2023-04-26T23:02:20.893Z,1.75
2023-04-26T23:04:47.657Z,2.10
2023-04-26T23:07:14.306Z,1.73
2023-04-26T23:09:41.081Z,2.05
2023-04-26T23:12:07.826Z,1.77
2023-04-26T23:14:34.941Z,1.88
2023-04-26T23:17:02.697Z,2.15
2023-04-26T23:19:29.442Z,1.85
2023-04-26T23:21:56.286Z,1.83
2023-04-26T23:24:22.927Z,2.15
2023-04-26T23:26:49.533Z,2.30
2023-04-26T23:29:16.104Z,2.60
2023-04-26T23:31:42.997Z,2.00
2023-04-26T23:34:10.637Z,1.75
2023-04-26T23:36:37.218Z,1.60
2023-04-26T23:39:03.936Z,1.92
2023-04-26T23:41:30.934Z,1.90
2023-04-26T23:43:57.527Z,1.48
2023-04-26T23:46:24.252Z,1.65
2023-04-26T23:48:51.034Z,1.50
2023-04-26T23:51:17.594Z,2.05
2023-04-26T23:53:44.742Z,2.08
2023-04-26T23:56:11.431Z,1.88
2023-04-26T23:58:38.026Z,1.65
